Terminal Aerodrome Forecast
Issued by NWS

Current Version | Previous Version | Graphics & Text | Print | Product List | Glossary On
Versions: 1 2 3 4 5 6 7 8 9 10 11 12 13 14 15 16 17 18 19 20 21 22 23 24 25 26
000
FTUS41 KRLX 172321
TAFCKB
TAF
KCKB 172321Z 1800/1824 29008KT P6SM BKN045
     FM180200 27007KT P6SM SKC
     FM181100 00000KT P6SM SKC
     FM181700 21005KT P6SM BKN050
     FM182000 22004KT P6SM BKN035
     FM182200 20004KT P6SM BKN040=

USA.gov is the U.S. government's official web portal to all federal, state and local government web resources and services.